Time;durP1;ratioP1;P1;durP2;ratioP2;P2;SDS_P1;SDS_P2;PMS_P1;PMS_P2;Temp;Humidity;BMP_temperature;BMP_pressure;BME280_temperature;BME280_humidity;BME280_pressure;Samples;Min_cycle;Max_cycle;Signal;HPM_P1;HPM_P2
2022/08/16 00:02:05;;;;;;;13.70;5.35;;;;;;;23.22;64.50;98629.52;1728368;83;21314;-47
2022/08/16 00:04:32;;;;;;;9.10;5.42;;;;;;;23.20;64.88;98633.95;1728350;83;22165;-47
2022/08/16 00:07:00;;;;;;;13.78;4.95;;;;;;;23.18;65.47;98631.67;1728088;83;20943;-47
2022/08/16 00:09:26;;;;;;;11.00;5.58;;;;;;;23.16;65.81;98631.35;1727877;83;21710;-47
2022/08/16 00:11:53;;;;;;;15.53;6.17;;;;;;;23.16;66.31;98634.73;1727961;83;21019;-47
2022/08/16 00:14:24;;;;;;;11.97;5.80;;;;;;;23.15;65.58;98637.34;1728145;83;21353;-47
2022/08/16 00:16:51;;;;;;;10.08;5.45;;;;;;;23.15;64.82;98637.34;1728157;83;21038;-47
2022/08/16 00:19:25;;;;;;;8.78;5.08;;;;;;;23.14;65.25;98635.19;1728024;83;20970;-47
2022/08/16 00:21:52;;;;;;;7.53;4.72;;;;;;;23.14;65.36;98638.59;1727983;83;20976;-47
2022/08/16 00:24:20;;;;;;;12.55;5.28;;;;;;;23.13;65.65;98635.66;1728041;83;21034;-47
2022/08/16 00:26:47;;;;;;;8.53;5.55;;;;;;;23.11;65.54;98631.20;1728367;83;21108;-47
2022/08/16 00:29:15;;;;;;;10.20;5.05;;;;;;;23.10;64.80;98633.19;1727895;83;21025;-47
2022/08/16 00:31:48;;;;;;;8.50;5.40;;;;;;;23.10;64.97;98630.42;1728174;83;20911;-47
2022/08/16 00:34:16;;;;;;;8.60;5.00;;;;;;;23.09;65.28;98632.30;1728283;83;21532;-47
2022/08/16 00:36:45;;;;;;;8.40;5.03;;;;;;;23.07;65.32;98626.44;1728148;83;21058;-47
2022/08/16 00:39:16;;;;;;;12.37;5.43;;;;;;;23.04;66.03;98629.53;1728308;83;21792;-47
2022/08/16 00:41:44;;;;;;;8.15;5.03;;;;;;;22.98;66.29;98631.97;1728046;83;21209;-47
2022/08/16 00:44:11;;;;;;;8.18;5.37;;;;;;;22.89;66.81;98636.28;1728209;83;21039;-47
2022/08/16 00:46:47;;;;;;;8.40;5.08;;;;;;;22.82;67.12;98639.33;1731803;82;20979;-47
2022/08/16 00:49:14;;;;;;;7.42;5.20;;;;;;;22.77;67.51;98640.55;1726919;82;21003;-47
2022/08/16 00:51:42;;;;;;;9.28;4.72;;;;;;;22.71;67.53;98641.77;1741384;81;21127;-48
2022/08/16 00:54:09;;;;;;;9.18;5.08;;;;;;;22.62;67.66;98637.58;1743486;82;21014;-47
2022/08/16 00:56:38;;;;;;;9.23;5.90;;;;;;;22.58;67.97;98641.72;1743629;82;20914;-47
2022/08/16 00:59:07;;;;;;;10.60;5.45;;;;;;;22.56;68.09;98640.04;1743718;82;21007;-47
2022/08/16 01:01:34;;;;;;;10.48;5.28;;;;;;;22.54;68.19;98648.78;1743590;81;21029;-47
2022/08/16 01:04:02;;;;;;;11.43;5.12;;;;;;;22.51;68.35;98647.68;1743576;82;21164;-47
2022/08/16 01:06:29;;;;;;;9.35;5.20;;;;;;;22.49;68.44;98648.77;1743824;81;21002;-48
2022/08/16 01:08:56;;;;;;;7.00;5.37;;;;;;;22.49;68.31;98659.05;1758094;81;21041;-47
2022/08/16 01:11:24;;;;;;;13.58;5.55;;;;;;;22.46;68.28;98655.83;1733240;82;21561;-47
2022/08/16 01:13:54;;;;;;;6.60;5.20;;;;;;;22.45;68.37;98652.91;1743787;82;21503;-47
2022/08/16 01:16:23;;;;;;;9.05;5.20;;;;;;;22.43;68.58;98661.63;1743683;81;21232;-47
2022/08/16 01:19:02;;;;;;;11.60;5.33;;;;;;;22.42;68.61;98654.56;1743550;82;20962;-47
2022/08/16 01:21:47;;;;;;;8.13;5.17;;;;;;;22.42;68.81;98653.80;1743683;81;20915;-47
2022/08/16 01:24:28;;;;;;;9.95;5.12;;;;;;;22.40;69.19;98652.89;1743624;81;21046;-47
2022/08/16 01:27:02;;;;;;;10.68;5.10;;;;;;;22.39;69.57;98663.00;1742469;81;21033;-47
2022/08/16 01:29:38;;;;;;;9.78;5.30;;;;;;;22.37;69.43;98665.44;1742604;81;23176;-47
2022/08/16 01:32:05;;;;;;;9.10;5.30;;;;;;;22.33;69.60;98666.20;1743246;81;21065;-47
2022/08/16 01:34:32;;;;;;;9.58;5.00;;;;;;;22.32;69.74;98657.75;1743550;82;20915;-47
2022/08/16 01:37:06;;;;;;;8.65;5.47;;;;;;;22.33;69.77;98664.21;1743590;81;21124;-47
2022/08/16 01:39:34;;;;;;;8.85;5.50;;;;;;;22.33;69.75;98652.39;1743505;81;21053;-47
2022/08/16 01:42:01;;;;;;;9.58;5.30;;;;;;;22.33;69.74;98646.87;1743634;82;21139;-48
2022/08/16 01:44:29;;;;;;;15.10;5.65;;;;;;;22.34;69.61;98648.41;1743350;81;20957;-47
2022/08/16 01:46:57;;;;;;;10.23;5.37;;;;;;;22.36;68.37;98645.97;1743408;82;21072;-47
2022/08/16 01:49:34;;;;;;;9.15;5.12;;;;;;;22.38;67.65;98647.05;1743489;82;21063;-47
2022/08/16 01:52:14;;;;;;;7.80;4.85;;;;;;;22.39;65.88;98646.43;1743444;82;21049;-47
2022/08/16 01:54:45;;;;;;;7.90;4.72;;;;;;;22.41;64.88;98652.28;1734763;82;21239;-47
2022/08/16 01:57:12;;;;;;;12.05;4.80;;;;;;;22.40;64.68;98639.69;1743361;82;20933;-47
2022/08/16 01:59:40;;;;;;;8.83;5.40;;;;;;;22.41;64.87;98628.80;1743438;81;20928;-47
2022/08/16 02:02:09;;;;;;;11.73;4.70;;;;;;;22.44;65.47;98636.16;1743466;82;21089;-47
2022/08/16 02:04:37;;;;;;;7.37;5.15;;;;;;;22.46;65.63;98632.34;1743452;82;21014;-47
2022/08/16 02:07:07;;;;;;;7.12;5.35;;;;;;;22.47;65.17;98614.52;1743293;82;23154;-47
2022/08/16 02:09:34;;;;;;;7.35;5.03;;;;;;;22.48;65.57;98615.46;1743516;81;20958;-47
2022/08/16 02:12:01;;;;;;;13.30;5.28;;;;;;;22.47;65.32;98611.77;1743779;82;20974;-47
2022/08/16 02:14:29;;;;;;;9.33;5.15;;;;;;;22.45;64.43;98602.58;1743548;81;20958;-47
2022/08/16 02:16:59;;;;;;;9.70;5.22;;;;;;;22.45;63.96;98599.81;1743538;82;20961;-47
2022/08/16 02:19:30;;;;;;;10.32;5.17;;;;;;;22.46;63.67;98596.44;1743562;82;21216;-47
2022/08/16 02:21:57;;;;;;;8.20;4.97;;;;;;;22.46;63.42;98592.30;1743262;81;21517;-47
2022/08/16 02:24:24;;;;;;;13.40;4.90;;;;;;;22.46;62.95;98592.30;1743490;82;20995;-47
2022/08/16 02:26:51;;;;;;;8.65;5.30;;;;;;;22.47;62.43;98591.05;1743462;82;20955;-47
2022/08/16 02:29:19;;;;;;;7.70;4.92;;;;;;;22.48;62.42;98578.78;1743731;82;21359;-47
2022/08/16 02:31:47;;;;;;;8.68;5.42;;;;;;;22.48;62.82;98582.31;1743653;82;21127;-48
2022/08/16 02:34:15;;;;;;;10.95;5.17;;;;;;;22.49;62.48;98576.95;1743638;82;20934;-48
2022/08/16 02:36:42;;;;;;;8.70;4.90;;;;;;;22.50;62.02;98583.24;1743923;82;20930;-47
2022/08/16 02:39:11;;;;;;;8.83;5.10;;;;;;;22.50;61.80;98581.86;1743414;82;21069;-47
2022/08/16 02:41:39;;;;;;;7.12;5.10;;;;;;;22.52;61.64;98578.02;1743705;82;20991;-47
2022/08/16 02:44:07;;;;;;;8.38;4.95;;;;;;;22.53;61.35;98570.66;1744104;81;21772;-47
2022/08/16 02:46:34;;;;;;;7.60;4.78;;;;;;;22.54;61.05;98569.44;1743707;82;20883;-47
2022/08/16 02:49:03;;;;;;;10.35;5.00;;;;;;;22.56;60.85;98567.58;1743351;81;20950;-47
2022/08/16 02:51:30;;;;;;;10.35;4.90;;;;;;;22.57;60.55;98566.36;1735760;81;20993;-48
2022/08/16 02:53:58;;;;;;;7.37;5.15;;;;;;;22.59;60.25;98562.53;1727896;83;21094;-47
2022/08/16 02:56:25;;;;;;;11.65;5.17;;;;;;;22.61;60.16;98562.83;1727831;83;23160;-47
2022/08/16 02:58:53;;;;;;;12.40;5.17;;;;;;;22.62;59.88;98553.92;1727560;83;21540;-47
2022/08/16 03:01:25;;;;;;;12.65;5.33;;;;;;;22.65;59.60;98554.41;1727961;83;20939;-47
2022/08/16 03:03:53;;;;;;;9.25;4.97;;;;;;;22.66;59.58;98558.07;1726922;82;20983;-47
2022/08/16 03:06:21;;;;;;;7.30;4.92;;;;;;;22.67;59.36;98548.56;1728264;83;21019;-47
2022/08/16 03:08:49;;;;;;;8.75;4.75;;;;;;;22.68;59.39;98550.71;1727689;83;21579;-47
2022/08/16 03:11:17;;;;;;;6.12;4.87;;;;;;;22.69;59.51;98557.78;1727775;83;21054;-47
2022/08/16 03:13:50;;;;;;;7.80;4.85;;;;;;;22.69;59.63;98557.17;1728018;83;20959;-47
2022/08/16 03:16:17;;;;;;;7.80;5.40;;;;;;;22.70;59.83;98555.17;1727936;83;21094;-47
2022/08/16 03:18:44;;;;;;;8.38;5.53;;;;;;;22.68;60.03;98561.15;1727987;83;21070;-47
2022/08/16 03:21:11;;;;;;;7.40;5.33;;;;;;;22.68;60.21;98554.24;1727972;83;21906;-47
2022/08/16 03:23:40;;;;;;;8.03;4.50;;;;;;;22.67;60.39;98553.31;1727744;83;21086;-47
2022/08/16 03:26:08;;;;;;;10.65;5.05;;;;;;;22.66;60.41;98560.83;1728063;83;20995;-47
2022/08/16 03:28:35;;;;;;;8.08;5.40;;;;;;;22.64;60.60;98559.16;1727829;83;21674;-47
2022/08/16 03:31:02;;;;;;;7.08;5.05;;;;;;;22.63;60.70;98560.99;1727871;83;21054;-47
2022/08/16 03:33:29;;;;;;;15.35;5.45;;;;;;;22.60;60.75;98544.73;1727982;83;21264;-47
2022/08/16 03:35:58;;;;;;;10.28;5.70;;;;;;;22.60;60.81;98539.82;1727662;83;21537;-47
2022/08/16 03:38:31;;;;;;;9.08;5.40;;;;;;;22.60;60.94;98546.12;1727289;82;21047;-47
2022/08/16 03:41:00;;;;;;;7.70;5.40;;;;;;;22.57;61.07;98546.25;1728017;81;20934;-47
2022/08/16 03:43:28;;;;;;;12.30;5.85;;;;;;;22.56;61.38;98548.23;1728611;83;21065;-47
2022/08/16 03:45:59;;;;;;;10.20;5.40;;;;;;;22.54;61.50;98545.19;1727893;83;21791;-47
2022/08/16 03:48:32;;;;;;;12.18;5.20;;;;;;;22.52;61.59;98542.10;1727903;82;21578;-47
2022/08/16 03:51:01;;;;;;;10.28;5.40;;;;;;;22.50;61.75;98538.44;1734405;80;21163;-47
2022/08/16 03:53:30;;;;;;;8.05;5.45;;;;;;;22.47;61.89;98540.72;1774187;80;21527;-47
2022/08/16 03:55:57;;;;;;;7.78;5.20;;;;;;;22.48;61.93;98535.97;1774173;80;21080;-47
2022/08/16 03:58:25;;;;;;;8.75;5.30;;;;;;;22.49;61.93;98537.50;1774033;80;21128;-47
2022/08/16 04:00:54;;;;;;;9.08;5.60;;;;;;;22.49;62.03;98544.41;1773908;80;20898;-47
2022/08/16 04:03:21;;;;;;;9.98;5.35;;;;;;;22.47;62.03;98539.34;1774172;80;21013;-47
2022/08/16 04:06:39;;;;;;;11.70;5.53;;;;;;;22.52;62.01;98533.20;1779297;79;23278;-47
2022/08/16 04:09:06;;;;;;;12.23;5.17;;;;;;;22.48;61.96;98537.34;1739091;82;20981;-47
2022/08/16 04:11:34;;;;;;;10.28;5.28;;;;;;;22.48;61.96;98533.20;1739110;82;23148;-47
2022/08/16 04:14:01;;;;;;;12.40;5.35;;;;;;;22.48;62.03;98538.73;1738959;82;21587;-47
2022/08/16 04:16:30;;;;;;;10.38;5.47;;;;;;;22.48;62.05;98531.82;1739019;82;21554;-47
2022/08/16 04:18:59;;;;;;;8.23;4.83;;;;;;;22.50;62.08;98540.42;1738393;82;20946;-47
2022/08/16 04:21:26;;;;;;;8.88;5.60;;;;;;;22.52;62.00;98539.34;1739061;82;20907;-47
2022/08/16 04:23:53;;;;;;;9.70;5.20;;;;;;;22.53;62.06;98533.97;1738920;82;21130;-47
2022/08/16 04:26:20;;;;;;;10.40;5.20;;;;;;;22.53;62.06;98531.21;1739067;82;21543;-47
2022/08/16 04:28:46;;;;;;;11.10;5.47;;;;;;;22.55;62.11;98528.77;1738913;82;20966;-47
2022/08/16 04:31:14;;;;;;;9.03;5.20;;;;;;;22.57;62.08;98527.68;1739139;82;20935;-46
2022/08/16 04:33:42;;;;;;;13.32;5.58;;;;;;;22.58;62.01;98520.93;1739160;82;21078;-47
2022/08/16 04:36:09;;;;;;;10.00;5.42;;;;;;;22.59;62.15;98519.71;1739088;82;21220;-46
2022/08/16 04:38:36;;;;;;;10.10;5.10;;;;;;;;;;1738907;82;21690;-47
2022/08/16 04:41:04;;;;;;;12.23;5.28;;;;;;;22.61;62.15;98522.77;1739226;82;21494;-47
2022/08/16 04:43:37;;;;;;;10.50;5.40;;;;;;;22.64;62.10;98526.61;1739319;82;21010;-47
2022/08/16 04:46:02;;;;;;;10.68;5.50;;;;;;;22.63;62.13;98523.08;1739000;82;21564;-47
2022/08/16 04:48:30;;;;;;;9.88;4.80;;;;;;;22.70;62.08;98524.20;1739132;82;21253;-47
2022/08/16 04:50:59;;;;;;;8.25;5.00;;;;;;;22.73;61.87;98526.03;1739173;82;20970;-47
2022/08/16 04:53:37;;;;;;;8.10;5.25;;;;;;;22.77;61.89;98530.01;1739029;82;21085;-46
2022/08/16 04:56:05;;;;;;;7.00;4.60;;;;;;;22.80;61.69;98531.23;1739140;82;20923;-47
2022/08/16 04:58:32;;;;;;;7.72;4.95;;;;;;;22.83;61.52;98533.70;1739490;81;21011;-47
2022/08/16 05:01:00;;;;;;;8.38;5.37;;;;;;;22.86;61.56;98543.21;1739171;82;21525;-46
2022/08/16 05:03:28;;;;;;;10.43;5.25;;;;;;;22.91;61.37;98547.35;1738966;82;20994;-47
2022/08/16 05:05:55;;;;;;;9.50;5.42;;;;;;;22.95;61.42;98544.58;1733016;81;21084;-46
2022/08/16 05:08:24;;;;;;;10.45;5.08;;;;;;;23.01;61.38;98548.88;1728552;83;20951;-47
2022/08/16 05:10:53;;;;;;;7.20;4.72;;;;;;;23.07;61.15;98553.17;1724705;82;21505;-47
2022/08/16 05:13:20;;;;;;;8.28;5.60;;;;;;;23.11;61.02;98557.92;1728592;83;21230;-46
2022/08/16 05:15:47;;;;;;;8.78;5.30;;;;;;;23.15;60.78;98564.06;1728431;83;21046;-46
2022/08/16 05:18:15;;;;;;;7.95;5.30;;;;;;;23.19;60.48;98554.38;1727959;83;20982;-47
2022/08/16 05:20:43;;;;;;;9.25;5.20;;;;;;;23.25;60.36;98552.53;1727229;82;21034;-47
2022/08/16 05:23:10;;;;;;;7.97;5.15;;;;;;;23.32;60.10;98552.83;1728054;83;21058;-46
2022/08/16 05:25:38;;;;;;;9.35;4.83;;;;;;;23.39;60.00;98552.48;1728076;83;21818;-47
2022/08/16 05:28:09;;;;;;;13.45;5.78;;;;;;;23.48;59.76;98548.98;1728062;83;21493;-47
2022/08/16 05:30:35;;;;;;;8.78;5.58;;;;;;;23.54;59.10;98546.48;1728036;83;20939;-47
2022/08/16 05:33:02;;;;;;;11.43;5.42;;;;;;;23.61;58.86;98548.93;1727927;83;20995;-47
2022/08/16 05:35:29;;;;;;;10.43;5.65;;;;;;;23.68;58.73;98553.34;1728030;83;21086;-46
2022/08/16 05:37:57;;;;;;;7.55;5.37;;;;;;;23.75;58.49;98551.64;1726500;80;22093;-46
2022/08/16 05:40:25;;;;;;;8.83;5.55;;;;;;;23.80;58.22;98544.85;1727938;83;21499;-47
2022/08/16 05:42:52;;;;;;;7.87;5.78;;;;;;;23.87;58.14;98545.75;1707462;83;21030;-47
2022/08/16 05:45:19;;;;;;;13.32;5.60;;;;;;;23.91;57.90;98549.11;1707431;83;21047;-47
2022/08/16 05:47:47;;;;;;;12.85;5.53;;;;;;;23.97;58.18;98557.67;1727957;83;21031;-46
2022/08/16 05:50:15;;;;;;;8.05;5.15;;;;;;;24.03;57.58;98555.04;1728003;83;21241;-47
2022/08/16 05:52:42;;;;;;;11.93;5.60;;;;;;;24.09;57.80;98567.02;1728061;83;21016;-46
2022/08/16 05:55:10;;;;;;;12.63;6.20;;;;;;;24.15;57.49;98567.91;1728211;83;21097;-47
2022/08/16 05:57:37;;;;;;;9.83;5.90;;;;;;;24.20;57.86;98586.07;1728218;83;21020;-47
2022/08/16 06:00:08;;;;;;;12.23;6.03;;;;;;;24.27;57.62;98585.55;1728242;83;20979;-47
2022/08/16 06:02:37;;;;;;;10.88;6.12;;;;;;;24.32;57.30;98596.77;1728231;82;21102;-46
2022/08/16 06:05:06;;;;;;;12.15;5.45;;;;;;;24.35;56.86;98598.58;1709520;81;21022;-47
2022/08/16 06:07:33;;;;;;;10.82;5.75;;;;;;;24.35;57.12;98605.50;1754427;81;21006;-47
2022/08/16 06:10:03;;;;;;;10.32;6.15;;;;;;;24.38;56.93;98605.20;1753745;81;21518;-47
2022/08/16 06:12:31;;;;;;;13.78;6.22;;;;;;;24.39;57.05;98600.58;1754589;81;21022;-46
2022/08/16 06:15:02;;;;;;;10.73;5.40;;;;;;;24.45;57.29;98602.83;1753937;81;23210;-47
2022/08/16 06:17:29;;;;;;;12.63;6.20;;;;;;;24.51;57.21;98612.03;1754407;81;21035;-46
2022/08/16 06:19:56;;;;;;;12.07;5.58;;;;;;;24.59;57.03;98602.12;1754174;81;21556;-47
2022/08/16 06:22:23;;;;;;;11.05;6.33;;;;;;;24.66;56.87;98595.46;1754380;81;21059;-46
2022/08/16 06:24:50;;;;;;;14.93;6.45;;;;;;;24.71;56.47;98594.81;1754348;81;21066;-47
2022/08/16 06:27:17;;;;;;;10.75;6.03;;;;;;;24.77;56.73;98593.55;1754375;81;21156;-47
2022/08/16 06:29:44;;;;;;;11.22;6.00;;;;;;;24.57;55.96;98547.80;1754041;81;21503;-46
2022/08/16 06:32:11;;;;;;;11.70;6.42;;;;;;;24.87;55.75;98595.03;1754281;81;21528;-46
2022/08/16 06:34:39;;;;;;;13.83;6.55;;;;;;;24.90;55.14;98599.63;1754581;81;21073;-46
2022/08/16 06:37:07;;;;;;;12.55;6.28;;;;;;;24.88;55.28;98594.57;1754664;81;21090;-46
2022/08/16 06:39:36;;;;;;;9.47;6.00;;;;;;;24.89;55.42;98582.83;1754866;81;22035;-46
2022/08/16 06:42:05;;;;;;;13.28;5.47;;;;;;;24.92;55.31;98592.99;1753992;81;21046;-47
2022/08/16 06:44:37;;;;;;;12.05;6.30;;;;;;;24.94;55.32;98596.04;1693672;81;21013;-47
2022/08/16 06:47:05;;;;;;;16.05;6.30;;;;;;;24.96;55.10;98592.95;1754075;81;21354;-46
2022/08/16 06:49:32;;;;;;;12.03;5.90;;;;;;;24.95;54.39;98587.88;1754405;81;21062;-47
2022/08/16 06:52:00;;;;;;;13.18;6.70;;;;;;;24.92;54.39;98592.99;1754292;81;21242;-46
2022/08/16 06:54:27;;;;;;;13.60;6.17;;;;;;;24.87;54.23;98599.20;1754532;81;21031;-46
2022/08/16 06:56:56;;;;;;;9.67;5.77;;;;;;;24.81;54.25;98616.30;1754266;81;21053;-47
2022/08/16 06:59:23;;;;;;;14.95;6.00;;;;;;;24.73;54.25;98612.37;1754289;81;20971;-47
2022/08/16 07:01:50;;;;;;;11.40;6.22;;;;;;;24.63;54.60;98622.13;1754195;81;20992;-47
2022/08/16 07:04:17;;;;;;;9.75;5.72;;;;;;;24.58;54.70;98615.09;1754398;81;22053;-47
2022/08/16 07:06:45;;;;;;;12.95;6.40;;;;;;;24.53;56.08;98628.97;1736996;81;21591;-47
2022/08/16 07:09:13;;;;;;;11.53;6.03;;;;;;;24.46;57.01;98641.77;1728236;83;21026;-47
2022/08/16 07:11:43;;;;;;;12.63;6.83;;;;;;;24.34;58.38;98658.02;1728095;82;20955;-47
2022/08/16 07:14:11;;;;;;;11.68;6.95;;;;;;;24.17;59.16;98667.92;1728053;83;21113;-47
2022/08/16 07:16:43;;;;;;;11.20;6.35;;;;;;;23.98;59.51;98665.81;1727609;82;23178;-47
2022/08/16 07:19:10;;;;;;;12.20;6.62;;;;;;;23.85;59.84;98673.55;1728097;83;20983;-47
2022/08/16 07:21:40;;;;;;;12.05;7.08;;;;;;;23.75;60.33;98681.72;1728085;83;21030;-47
2022/08/16 07:24:10;;;;;;;11.93;6.78;;;;;;;23.69;60.92;98682.96;1727942;83;21134;-47
2022/08/16 07:26:39;;;;;;;12.45;7.08;;;;;;;23.66;61.25;98677.59;1727866;83;21520;-47
2022/08/16 07:29:06;;;;;;;11.88;6.87;;;;;;;23.61;61.36;98685.91;1727957;83;21137;-47
2022/08/16 07:31:33;;;;;;;12.00;7.20;;;;;;;23.59;61.59;98687.59;1727796;83;20991;-46
2022/08/16 07:34:00;;;;;;;13.72;7.40;;;;;;;23.56;61.38;98692.06;1728065;83;21564;-47
2022/08/16 07:36:29;;;;;;;16.27;7.85;;;;;;;23.52;62.08;98692.06;1727883;83;21043;-47
2022/08/16 07:38:57;;;;;;;15.13;7.72;;;;;;;23.47;62.68;98694.06;1727934;83;21010;-47
2022/08/16 07:41:25;;;;;;;16.77;8.05;;;;;;;23.37;62.79;98687.74;1727873;83;23182;-47
2022/08/16 07:43:54;;;;;;;13.00;7.20;;;;;;;23.31;63.17;98686.81;1727737;83;21514;-47
2022/08/16 07:46:21;;;;;;;12.60;7.80;;;;;;;23.24;63.43;98692.03;1727809;83;21090;-47
2022/08/16 07:48:49;;;;;;;12.45;7.53;;;;;;;23.23;63.95;98689.13;1727891;83;20967;-47
2022/08/16 07:51:16;;;;;;;14.53;8.23;;;;;;;23.23;64.12;98700.80;1727988;83;20937;-47
2022/08/16 07:53:46;;;;;;;12.93;7.65;;;;;;;23.28;64.65;98701.58;1727925;83;21895;-47
2022/08/16 07:56:13;;;;;;;14.58;7.90;;;;;;;23.33;65.47;98699.58;1728001;83;21560;-47
2022/08/16 07:58:41;;;;;;;14.35;7.47;;;;;;;23.39;65.90;98692.95;1727858;83;20963;-47
2022/08/16 08:01:10;;;;;;;12.63;8.65;;;;;;;23.50;66.22;98696.67;1727737;82;21505;-47
2022/08/16 08:03:37;;;;;;;14.65;8.15;;;;;;;23.62;66.38;98695.75;1728001;83;21050;-47
2022/08/16 08:06:06;;;;;;;11.55;7.90;;;;;;;23.72;66.27;98691.70;1727802;81;21134;-47
2022/08/16 08:08:35;;;;;;;15.45;7.92;;;;;;;23.82;66.00;98690.46;1727942;83;21178;-47
2022/08/16 08:11:03;;;;;;;11.80;7.83;;;;;;;23.94;65.43;98689.36;1727810;83;21300;-47
2022/08/16 08:13:30;;;;;;;12.45;7.60;;;;;;;24.00;64.14;98693.05;1727893;83;21812;-47
2022/08/16 08:15:57;;;;;;;13.22;7.95;;;;;;;24.02;64.41;98695.48;1727823;83;21090;-47
2022/08/16 08:18:25;;;;;;;13.38;8.10;;;;;;;24.07;64.28;98700.39;1728005;83;21141;-47
2022/08/16 08:20:52;;;;;;;15.80;8.48;;;;;;;24.11;64.38;98702.98;1727932;83;20963;-47
2022/08/16 08:23:20;;;;;;;11.68;8.18;;;;;;;24.13;64.41;98703.30;1728063;83;21055;-47
2022/08/16 08:25:49;;;;;;;14.47;8.53;;;;;;;24.12;64.62;98698.37;1728151;83;20987;-47
2022/08/16 08:28:16;;;;;;;13.00;8.03;;;;;;;24.12;64.66;98696.22;1728026;83;20988;-47
2022/08/16 08:30:44;;;;;;;16.93;8.70;;;;;;;24.12;64.68;98689.30;1728261;83;21103;-47
2022/08/16 08:33:11;;;;;;;10.98;7.55;;;;;;;24.12;64.52;98699.77;1728191;83;20971;-47
2022/08/16 08:35:40;;;;;;;18.10;7.72;;;;;;;24.10;64.98;98698.09;1728194;82;20978;-47
2022/08/16 08:38:09;;;;;;;9.25;6.72;;;;;;;24.07;65.12;98696.85;1728113;83;21042;-47
2022/08/16 08:40:38;;;;;;;13.23;6.77;;;;;;;24.05;65.50;98697.95;1727668;82;21441;-46
2022/08/16 08:43:09;;;;;;;11.40;6.95;;;;;;;24.05;65.84;98686.27;1727946;83;21143;-47
2022/08/16 08:45:35;;;;;;;10.55;6.65;;;;;;;24.06;65.76;98689.80;1707526;83;21047;-47
2022/08/16 08:48:04;;;;;;;9.88;6.22;;;;;;;24.08;65.99;98695.63;1728031;83;21020;-47
2022/08/16 08:50:33;;;;;;;12.78;6.65;;;;;;;24.12;65.96;98694.84;1727970;83;20946;-47
2022/08/16 08:53:02;;;;;;;10.20;6.17;;;;;;;24.15;65.69;98685.00;1707310;83;21105;-47
2022/08/16 08:55:30;;;;;;;11.05;6.00;;;;;;;24.17;65.62;98690.08;1727986;83;21092;-47
2022/08/16 08:57:58;;;;;;;9.60;5.25;;;;;;;24.21;65.42;98694.83;1728015;83;20979;-47
2022/08/16 09:00:28;;;;;;;;;;;;;;;24.23;65.27;98696.53;1729396;82;21014;-47
2022/08/16 09:02:57;;;;;;;10.15;4.85;;;;;;;24.25;65.24;98692.05;1728039;83;20582;-47
2022/08/16 09:05:27;;;;;;;9.70;5.10;;;;;;;24.17;65.17;98698.39;1727986;83;21019;-47
2022/08/16 09:07:55;;;;;;;7.53;4.90;;;;;;;24.15;64.52;98706.39;1749923;81;21945;-47
2022/08/16 09:10:24;;;;;;;7.25;4.37;;;;;;;24.13;64.27;98708.84;1753416;81;21014;-47
2022/08/16 09:12:51;;;;;;;6.00;3.80;;;;;;;24.13;63.90;98717.16;1754486;81;21017;-47
2022/08/16 09:15:21;;;;;;;7.28;3.83;;;;;;;24.09;63.10;98711.02;1754329;81;21097;-47
2022/08/16 09:17:52;;;;;;;7.37;4.45;;;;;;;24.07;63.05;98720.39;1754339;81;21049;-47
2022/08/16 09:20:18;;;;;;;7.00;4.58;;;;;;;24.05;62.99;98722.88;1754333;81;21502;-47
2022/08/16 09:22:46;;;;;;;13.35;5.80;;;;;;;24.07;64.07;98728.70;1754548;81;21533;-47
2022/08/16 09:25:13;;;;;;;9.18;5.78;;;;;;;24.10;64.82;98734.71;1754433;81;21048;-47
2022/08/16 09:27:41;;;;;;;13.08;5.78;;;;;;;24.13;65.13;98737.92;1754363;81;21014;-47
2022/08/16 09:30:10;;;;;;;9.73;5.03;;;;;;;24.16;65.34;98741.13;1754818;81;21062;-47
2022/08/16 09:32:38;;;;;;;8.38;5.17;;;;;;;24.18;65.42;98743.64;1754810;81;21043;-47
2022/08/16 09:35:07;;;;;;;6.92;4.78;;;;;;;24.23;65.40;98736.70;1754352;81;20991;-47
2022/08/16 09:37:34;;;;;;;8.30;4.22;;;;;;;24.30;65.40;98740.53;1754817;81;20983;-47
2022/08/16 09:40:02;;;;;;;5.72;3.47;;;;;;;24.39;64.99;98750.19;1754410;81;21038;-47
2022/08/16 09:42:29;;;;;;;6.63;3.33;;;;;;;24.44;63.92;98750.17;1755087;81;21058;-47
2022/08/16 09:44:57;;;;;;;4.60;3.45;;;;;;;24.44;63.42;98752.33;1754638;81;21481;-47
2022/08/16 09:47:24;;;;;;;5.33;3.25;;;;;;;24.44;63.37;98759.26;1754255;81;21504;-47
2022/08/16 09:49:51;;;;;;;6.30;3.30;;;;;;;24.46;62.90;98754.00;1754636;81;21548;-47
2022/08/16 09:52:19;;;;;;;5.72;3.27;;;;;;;24.49;62.79;98766.94;1754672;81;21575;-47
2022/08/16 09:54:46;;;;;;;5.53;2.90;;;;;;;24.48;62.37;98765.39;1743300;82;20938;-46
2022/08/16 09:57:13;;;;;;;5.85;3.25;;;;;;;24.46;62.09;98765.09;1743412;82;21085;-47
2022/08/16 09:59:40;;;;;;;5.90;3.37;;;;;;;24.45;62.01;98769.08;1743209;82;21081;-46
2022/08/16 10:02:07;;;;;;;6.03;3.25;;;;;;;24.41;62.17;98760.79;1743200;82;21516;-47
2022/08/16 10:04:35;;;;;;;5.33;3.58;;;;;;;24.35;62.04;98764.80;1743185;82;21005;-47
2022/08/16 10:07:03;;;;;;;5.95;3.67;;;;;;;24.31;62.73;98766.98;1745110;81;21032;-47
2022/08/16 10:09:30;;;;;;;6.55;3.70;;;;;;;24.28;63.11;98773.46;1749001;82;21828;-47
2022/08/16 10:14:44;;;;;;;6.28;3.60;;;;;;;24.12;63.55;98771.00;1749050;81;21015;-47
2022/08/16 10:17:12;;;;;;;5.58;3.50;;;;;;;24.08;63.90;98780.09;1748894;81;21539;-47
2022/08/16 10:19:38;;;;;;;6.17;3.50;;;;;;;24.04;64.07;98769.80;1748993;81;21009;-46
2022/08/16 10:22:06;;;;;;;6.30;3.80;;;;;;;23.99;63.98;98764.88;1749186;81;21503;-47
2022/08/16 10:24:33;;;;;;;9.33;3.58;;;;;;;23.94;64.00;98776.58;1749012;82;20961;-47
2022/08/16 10:27:00;;;;;;;7.87;3.90;;;;;;;23.87;64.03;98770.73;1748902;82;21558;-47
2022/08/16 10:29:27;;;;;;;7.05;3.40;;;;;;;23.81;64.17;98778.91;1749105;81;21069;-47
2022/08/16 10:31:55;;;;;;;4.95;2.98;;;;;;;23.74;64.41;98777.05;1748863;81;21028;-47
2022/08/16 10:34:22;;;;;;;6.55;3.65;;;;;;;23.66;64.66;98780.76;1749064;82;21187;-47
2022/08/16 10:36:49;;;;;;;4.60;3.47;;;;;;;23.60;65.18;98783.98;1748916;82;20921;-47
2022/08/16 10:39:16;;;;;;;6.28;3.60;;;;;;;23.54;65.43;98784.44;1749119;82;20930;-47
2022/08/16 10:41:43;;;;;;;3.92;3.33;;;;;;;23.52;65.87;98775.84;1744014;81;21017;-47
2022/08/16 10:44:13;;;;;;;5.35;3.60;;;;;;;23.55;65.82;98780.45;1749027;81;21040;-47
2022/08/16 10:46:41;;;;;;;4.37;3.30;;;;;;;23.62;65.98;98776.00;1749234;81;21223;-47
2022/08/16 10:49:11;;;;;;;5.70;4.10;;;;;;;23.71;65.70;98770.45;1749270;82;20941;-47
2022/08/16 10:51:40;;;;;;;7.47;3.27;;;;;;;23.80;65.58;98763.53;1748900;82;20981;-46
2022/08/16 10:54:07;;;;;;;6.90;3.95;;;;;;;23.89;65.15;98753.66;1748732;82;21649;-47
2022/08/16 10:56:34;;;;;;;5.55;3.80;;;;;;;23.91;64.97;98753.98;1748906;82;21045;-47
2022/08/16 10:59:02;;;;;;;7.87;4.00;;;;;;;23.93;65.00;98762.58;1749138;81;21112;-47
2022/08/16 11:01:29;;;;;;;5.47;3.95;;;;;;;23.96;65.07;98767.20;1749198;82;21080;-47
2022/08/16 11:03:56;;;;;;;8.30;4.37;;;;;;;23.97;64.92;98769.48;1749209;82;21002;-47
2022/08/16 11:06:23;;;;;;;7.97;4.22;;;;;;;23.99;64.97;98769.80;1744003;82;21579;-47
2022/08/16 11:08:50;;;;;;;6.67;4.33;;;;;;;24.04;64.81;98776.72;1749039;81;21013;-47
2022/08/16 11:11:19;;;;;;;5.90;3.83;;;;;;;24.14;64.85;98783.16;1749446;81;20965;-46
2022/08/16 11:13:51;;;;;;;6.37;4.35;;;;;;;24.25;64.50;98789.64;1749022;82;21037;-47
2022/08/16 11:16:20;;;;;;;8.05;4.78;;;;;;;24.30;64.37;98792.39;1749210;82;20964;-47
2022/08/16 11:18:47;;;;;;;8.15;4.60;;;;;;;24.30;64.11;98797.33;1749093;82;21029;-47
2022/08/16 11:21:14;;;;;;;7.45;5.03;;;;;;;24.29;64.31;98790.24;1749131;81;21041;-47
2022/08/16 11:23:41;;;;;;;8.53;4.95;;;;;;;24.32;64.02;98798.99;1748945;82;22049;-47
2022/08/16 11:26:08;;;;;;;6.40;5.15;;;;;;;24.30;63.78;98797.33;1748891;82;20945;-47
2022/08/16 11:28:37;;;;;;;7.67;5.17;;;;;;;24.22;63.94;98805.17;1748994;81;20926;-46
2022/08/16 11:31:04;;;;;;;8.15;5.45;;;;;;;24.17;64.20;98807.19;1748917;82;21024;-47
2022/08/16 11:33:31;;;;;;;10.45;5.70;;;;;;;24.14;64.51;98810.09;1748830;82;21520;-47
2022/08/16 11:35:58;;;;;;;9.78;5.15;;;;;;;24.06;64.52;98813.78;1748885;82;22142;-47
2022/08/16 11:38:25;;;;;;;7.37;5.35;;;;;;;23.98;64.81;98813.17;1748875;81;21029;-47
2022/08/16 11:40:59;;;;;;;6.75;4.37;;;;;;;23.90;65.11;98821.66;1748793;81;21085;-46